Time;durP1;ratioP1;P1;durP2;ratioP2;P2;SDS_P1;SDS_P2;PMS_P1;PMS_P2;Temp;Humidity;BMP_temperature;BMP_pressure;BME280_temperature;BME280_humidity;BME280_pressure;Samples;Min_cycle;Max_cycle;Signal;HPM_P1;HPM_P2
2022/11/26 00:01:47;;;;;;;14.70;13.57;;;;;;;12.61;73.22;101238.06;4974743;28;102074;-54
2022/11/26 00:04:15;;;;;;;14.75;13.65;;;;;;;12.61;73.76;101238.06;4986126;28;102192;-54
2022/11/26 00:06:43;;;;;;;15.32;14.02;;;;;;;12.61;73.50;101246.25;4979825;28;104174;-54
2022/11/26 00:09:15;;;;;;;15.93;14.75;;;;;;;12.61;73.45;101243.53;4981646;28;102469;-54
2022/11/26 00:11:42;;;;;;;16.35;15.05;;;;;;;12.63;73.41;101251.47;4983476;28;102182;-54
2022/11/26 00:14:13;;;;;;;17.02;15.73;;;;;;;12.62;73.24;101250.66;4972225;28;102081;-54
2022/11/26 00:16:39;;;;;;;15.13;14.02;;;;;;;12.63;73.19;101252.28;4960054;28;104557;-54
2022/11/26 00:19:06;;;;;;;17.05;15.63;;;;;;;12.64;73.25;101259.38;4970055;28;102989;-54
2022/11/26 00:21:36;;;;;;;17.45;16.27;;;;;;;12.64;73.17;101259.38;4963035;28;102654;-54
2022/11/26 00:24:04;;;;;;;17.52;16.33;;;;;;;12.62;73.47;101264.31;4965505;28;102109;-54
2022/11/26 00:26:34;;;;;;;19.20;17.88;;;;;;;12.62;73.34;101268.91;4957134;28;104063;-55
2022/11/26 00:29:01;;;;;;;19.70;18.30;;;;;;;12.60;73.36;101261.00;4966569;28;102192;-54
2022/11/26 00:31:28;;;;;;;20.23;18.73;;;;;;;12.60;73.34;101269.19;4974505;28;102432;-54
2022/11/26 00:33:55;;;;;;;21.88;20.33;;;;;;;12.59;73.24;101262.09;4960252;28;102553;-55
2022/11/26 00:36:26;;;;;;;20.42;19.05;;;;;;;12.60;73.22;101266.47;4956986;28;104097;-54
2022/11/26 00:38:57;;;;;;;22.23;20.75;;;;;;;12.60;73.20;101263.75;4966319;28;102521;-54
2022/11/26 00:41:29;;;;;;;19.05;17.83;;;;;;;12.61;73.13;101270.84;4957440;28;102226;-55
2022/11/26 00:43:57;;;;;;;19.92;18.52;;;;;;;12.61;73.19;101270.84;4968771;28;102830;-54
2022/11/26 00:46:25;;;;;;;21.40;20.00;;;;;;;12.63;73.23;101267.84;4967133;28;107868;-54
2022/11/26 00:48:51;;;;;;;23.30;21.70;;;;;;;12.61;73.12;101262.66;4972549;28;102185;-55
2022/11/26 00:51:20;;;;;;;20.60;19.15;;;;;;;12.62;73.05;101275.22;4969344;28;102459;-54
2022/11/26 00:53:48;;;;;;;25.52;23.92;;;;;;;12.63;73.04;101279.59;4974519;28;102877;-55
2022/11/26 00:56:19;;;;;;;24.27;22.67;;;;;;;12.62;73.09;101275.22;4963079;28;104061;-54
2022/11/26 00:58:46;;;;;;;23.10;21.63;;;;;;;12.63;73.10;101276.03;4964675;28;102908;-54
2022/11/26 01:01:17;;;;;;;24.80;23.23;;;;;;;12.63;72.85;101285.06;4971189;28;102436;-54
2022/11/26 01:03:43;;;;;;;24.02;22.42;;;;;;;12.63;72.93;101276.03;4968297;28;102192;-54
2022/11/26 01:06:14;;;;;;;25.77;24.08;;;;;;;12.63;73.00;101286.97;4973686;28;103877;-54
2022/11/26 01:08:41;;;;;;;24.05;22.50;;;;;;;12.63;72.95;101285.06;4972319;28;103129;-54
2022/11/26 01:11:11;;;;;;;22.52;21.05;;;;;;;12.63;73.00;101295.16;4958734;28;102126;-54
2022/11/26 01:13:39;;;;;;;25.17;23.45;;;;;;;12.62;73.11;101286.16;4956708;28;102465;-54
2022/11/26 01:16:16;;;;;;;27.37;25.63;;;;;;;12.61;72.97;101295.41;4961654;28;103581;-54
2022/11/26 01:18:43;;;;;;;24.65;22.95;;;;;;;12.62;73.02;101288.03;4957283;28;102250;-54
2022/11/26 01:21:10;;;;;;;26.45;24.67;;;;;;;12.63;72.89;101295.97;4958816;28;102257;-54
2022/11/26 01:23:36;;;;;;;27.65;25.77;;;;;;;12.64;72.88;101297.59;4959113;28;102850;-54
2022/11/26 01:26:05;;;;;;;25.67;23.95;;;;;;;12.63;72.92;101285.06;4960169;28;103973;-55
2022/11/26 01:28:32;;;;;;;27.15;25.33;;;;;;;12.63;72.96;101292.44;4972909;28;102219;-54
2022/11/26 01:31:00;;;;;;;27.52;25.83;;;;;;;12.63;72.76;101287.78;4969741;28;102249;-54
2022/11/26 01:33:30;;;;;;;25.00;23.35;;;;;;;12.63;72.83;101295.16;4973430;28;102229;-54
2022/11/26 01:35:56;;;;;;;28.13;26.25;;;;;;;12.64;72.96;101291.31;4956532;28;103950;-54
2022/11/26 01:38:23;;;;;;;27.63;25.73;;;;;;;12.62;72.97;101288.88;4970489;28;102225;-54
2022/11/26 01:41:01;;;;;;;26.92;25.02;;;;;;;12.63;72.80;101293.25;4962924;28;102224;-54
2022/11/26 01:43:32;;;;;;;26.00;24.25;;;;;;;12.62;73.02;101299.81;4966069;28;102155;-54
2022/11/26 01:45:59;;;;;;;25.77;23.83;;;;;;;12.62;73.03;101294.34;4966238;28;104078;-54
2022/11/26 01:48:29;;;;;;;26.10;24.45;;;;;;;12.63;73.05;101295.97;4955540;28;101994;-54
2022/11/26 01:51:02;;;;;;;28.38;26.50;;;;;;;12.61;72.94;101298.13;4960440;28;102138;-54
2022/11/26 01:53:44;;;;;;;29.45;27.58;;;;;;;12.61;73.01;101306.34;4956718;28;102466;-54
2022/11/26 01:56:31;;;;;;;24.48;22.83;;;;;;;12.61;72.87;101313.72;4960697;28;104546;-54
2022/11/26 01:59:02;;;;;;;24.75;23.13;;;;;;;12.60;72.99;101318.34;4961060;28;102254;-54
2022/11/26 02:01:32;;;;;;;27.92;26.13;;;;;;;12.62;72.90;101310.72;4964411;28;102742;-54
2022/11/26 02:04:08;;;;;;;28.42;26.63;;;;;;;12.60;73.11;101312.88;4958538;28;102527;-54
2022/11/26 02:06:36;;;;;;;27.52;25.75;;;;;;;12.61;73.02;101313.72;4965682;28;104310;-55
2022/11/26 02:09:05;;;;;;;25.77;23.95;;;;;;;12.60;73.00;101312.06;4963006;28;102207;-54
2022/11/26 02:11:33;;;;;;;26.83;25.02;;;;;;;12.59;72.74;101327.66;4961446;28;102513;-54
2022/11/26 02:14:03;;;;;;;28.52;26.67;;;;;;;12.60;73.21;101329.28;4964866;28;102447;-54
2022/11/26 02:16:44;;;;;;;29.17;27.27;;;;;;;12.59;72.88;101338.56;4960242;28;104281;-54
2022/11/26 02:19:36;;;;;;;25.73;24.08;;;;;;;12.59;72.89;101333.09;4960784;28;102466;-54
2022/11/26 02:22:19;;;;;;;24.73;23.13;;;;;;;12.60;73.00;101339.38;4965675;28;102090;-54
2022/11/26 02:24:49;;;;;;;28.35;26.55;;;;;;;12.58;72.88;101342.38;4960943;28;102331;-54
2022/11/26 02:27:34;;;;;;;26.40;24.58;;;;;;;12.59;72.87;101349.47;4962750;28;103850;-54
2022/11/26 02:30:11;;;;;;;27.30;25.48;;;;;;;12.58;72.92;101345.09;4960430;28;102294;-53
2022/11/26 02:32:53;;;;;;;25.98;24.17;;;;;;;12.58;72.91;101350.56;4961568;28;102879;-54
2022/11/26 02:35:24;;;;;;;26.77;24.58;;;;;;;12.58;72.81;101355.19;4961411;28;102288;-54
2022/11/26 02:37:54;;;;;;;23.27;21.67;;;;;;;12.57;72.76;101356.28;4960013;28;103901;-54
2022/11/26 02:40:21;;;;;;;26.83;24.98;;;;;;;12.57;72.93;101351.66;4959580;28;102468;-54
2022/11/26 02:42:48;;;;;;;27.10;25.27;;;;;;;12.57;72.65;101351.66;4960405;28;102473;-55
2022/11/26 04:34:30;;;;;;;26.35;24.65;;;;;;;12.45;72.62;101458.38;5014850;28;102404;-55
2022/11/26 04:36:57;;;;;;;17.20;15.95;;;;;;;12.43;72.63;101452.34;5001649;28;102411;-54
2022/11/26 04:39:23;;;;;;;16.73;15.43;;;;;;;12.46;72.37;101445.53;4983759;28;104249;-54
2022/11/26 04:41:50;;;;;;;16.27;15.05;;;;;;;12.47;72.59;101455.34;4973616;28;102419;-55
2022/11/26 04:44:16;;;;;;;17.30;16.00;;;;;;;12.47;72.55;101458.09;4975127;28;102614;-54
2022/11/26 04:46:43;;;;;;;17.85;16.45;;;;;;;12.48;72.79;101465.22;4991773;28;102572;-54
2022/11/26 04:49:09;;;;;;;17.48;16.17;;;;;;;12.48;72.62;101465.22;4977412;28;103791;-55
2022/11/26 04:51:39;;;;;;;18.57;17.20;;;;;;;12.49;72.53;101469.56;4972495;28;102421;-54
2022/11/26 04:54:05;;;;;;;19.90;18.33;;;;;;;12.50;72.47;101468.47;4986332;28;102097;-55
2022/11/26 04:56:32;;;;;;;17.58;16.23;;;;;;;12.49;72.52;101473.13;4977041;28;102617;-55
2022/11/26 04:58:58;;;;;;;17.80;16.40;;;;;;;12.50;72.52;101479.41;4988933;28;103868;-54
2022/11/26 05:01:25;;;;;;;19.42;18.05;;;;;;;12.51;72.51;101483.78;4976873;28;102648;-55
2022/11/26 05:03:52;;;;;;;22.60;21.05;;;;;;;12.50;72.23;101490.31;4988287;28;102209;-54
2022/11/26 05:06:19;;;;;;;23.20;21.52;;;;;;;12.50;72.46;101487.59;4983785;28;102532;-54
2022/11/26 05:08:47;;;;;;;20.20;18.77;;;;;;;12.52;72.24;101501.81;4988765;28;104009;-55
2022/11/26 05:11:14;;;;;;;22.48;20.88;;;;;;;12.52;72.39;101496.34;4980442;28;102093;-55
2022/11/26 05:13:40;;;;;;;24.00;22.38;;;;;;;12.53;72.42;101506.19;4977408;28;102289;-54
2022/11/26 05:16:07;;;;;;;22.67;21.15;;;;;;;12.53;72.29;101489.78;4982190;28;102475;-55
2022/11/26 05:18:33;;;;;;;24.63;23.05;;;;;;;12.53;72.54;101498.00;4977556;28;103890;-54
2022/11/26 05:21:00;;;;;;;26.55;24.80;;;;;;;12.51;72.42;101502.88;4984793;28;102343;-55
2022/11/26 05:23:26;;;;;;;25.55;23.92;;;;;;;12.52;72.68;101501.81;4984337;28;102361;-55
2022/11/26 05:25:54;;;;;;;24.67;23.08;;;;;;;12.51;72.56;101511.06;4991621;28;102288;-54
2022/11/26 05:28:20;;;;;;;25.95;24.33;;;;;;;12.51;72.34;101511.06;4996053;28;103887;-54
2022/11/26 05:30:47;;;;;;;25.02;23.38;;;;;;;12.53;72.38;101513.56;4994636;28;102530;-54
2022/11/26 05:33:13;;;;;;;30.38;28.42;;;;;;;12.55;72.23;101516.81;4989090;28;101939;-54
2022/11/26 05:35:40;;;;;;;27.42;25.63;;;;;;;12.54;72.42;101518.75;4980507;28;102242;-54
2022/11/26 05:38:07;;;;;;;29.98;28.10;;;;;;;12.53;72.45;101524.47;4976554;28;103938;-54
2022/11/26 05:40:34;;;;;;;28.02;26.23;;;;;;;12.53;72.35;101519.84;4991204;28;102229;-55
2022/11/26 05:43:02;;;;;;;28.88;26.92;;;;;;;12.52;72.38;101517.38;4984174;28;102365;-55
2022/11/26 05:45:29;;;;;;;30.88;28.77;;;;;;;12.50;72.52;101520.34;4977255;28;102146;-54
2022/11/26 05:47:57;;;;;;;28.63;26.75;;;;;;;12.53;72.36;101525.28;4979842;28;104118;-54
2022/11/26 05:50:23;;;;;;;29.75;27.85;;;;;;;12.52;72.62;101526.38;4985363;28;102718;-55
2022/11/26 05:52:52;;;;;;;31.50;29.48;;;;;;;12.51;72.63;101532.91;4985715;28;101922;-54
2022/11/26 05:55:19;;;;;;;30.63;28.67;;;;;;;12.53;72.58;101535.41;4988518;28;102465;-54
2022/11/26 05:57:45;;;;;;;35.20;32.92;;;;;;;12.53;72.43;101535.41;4977457;28;103977;-55
2022/11/26 06:00:14;;;;;;;32.83;30.75;;;;;;;12.52;72.53;101539.22;4990440;28;102398;-54
2022/11/26 06:02:41;;;;;;;32.70;30.67;;;;;;;12.50;72.53;101537.56;4991824;28;102208;-54
2022/11/26 06:05:08;;;;;;;30.17;28.25;;;;;;;12.52;72.76;101542.78;4979172;28;102737;-54
2022/11/26 06:07:35;;;;;;;33.80;31.73;;;;;;;12.50;72.25;101542.19;4992189;28;104225;-55
2022/11/26 06:10:03;;;;;;;29.40;27.63;;;;;;;12.51;72.26;101546.56;4984830;28;102301;-54
2022/11/26 06:12:30;;;;;;;32.38;30.23;;;;;;;12.50;72.31;101553.13;4977441;28;102316;-53
2022/11/26 06:14:57;;;;;;;32.22;30.25;;;;;;;12.50;72.47;101553.13;4978301;28;102216;-54
2022/11/26 06:17:25;;;;;;;34.13;32.10;;;;;;;12.50;72.50;101558.59;4988237;28;104295;-54
2022/11/26 06:19:51;;;;;;;35.65;33.47;;;;;;;12.50;72.39;101562.13;4978531;28;103271;-54
2022/11/26 06:22:17;;;;;;;34.78;32.60;;;;;;;12.50;72.54;101569.50;4978246;28;102171;-54
2022/11/26 06:24:44;;;;;;;35.63;33.47;;;;;;;12.51;72.39;101571.13;4979654;28;102460;-55
2022/11/26 06:27:10;;;;;;;39.80;37.42;;;;;;;12.50;72.39;101570.31;4977545;28;103948;-54
2022/11/26 06:29:37;;;;;;;35.17;33.05;;;;;;;12.51;72.16;101576.59;4977700;28;101878;-54
2022/11/26 06:32:04;;;;;;;38.53;36.25;;;;;;;12.51;72.41;101582.06;4980891;28;102740;-55
2022/11/26 06:34:31;;;;;;;38.30;36.03;;;;;;;12.50;72.36;101583.16;4981537;28;102216;-54
2022/11/26 06:36:58;;;;;;;38.40;36.10;;;;;;;12.50;72.32;101588.59;4977935;28;104066;-54
2022/11/26 06:39:25;;;;;;;37.20;34.90;;;;;;;12.50;72.52;101592.16;4988324;28;102648;-55
2022/11/26 06:41:51;;;;;;;36.58;34.40;;;;;;;12.49;72.70;101593.25;4968134;28;102352;-55
2022/11/26 06:44:18;;;;;;;40.00;37.65;;;;;;;12.51;72.40;101592.97;4982903;28;102151;-55
2022/11/26 06:46:44;;;;;;;38.95;36.63;;;;;;;12.52;72.31;101599.28;4983043;28;104188;-54
2022/11/26 06:49:11;;;;;;;38.85;36.53;;;;;;;12.51;72.28;101595.72;4994115;28;102488;-54
2022/11/26 06:51:39;;;;;;;40.55;38.03;;;;;;;12.52;72.47;101588.38;4995712;28;102145;-55
2022/11/26 06:54:06;;;;;;;39.30;36.93;;;;;;;12.53;72.38;101584.53;4989036;28;102080;-54
2022/11/26 06:56:34;;;;;;;37.30;34.85;;;;;;;12.52;72.31;101589.19;4980181;28;104073;-54
2022/11/26 06:59:01;;;;;;;34.47;32.38;;;;;;;12.51;72.40;101598.44;4980336;28;102707;-54
2022/11/26 07:01:28;;;;;;;34.30;32.22;;;;;;;12.52;72.52;101600.09;4982012;28;102014;-54
2022/11/26 07:03:54;;;;;;;37.38;35.10;;;;;;;12.52;72.45;101600.09;4985340;28;102458;-55
2022/11/26 07:06:22;;;;;;;35.95;33.83;;;;;;;12.51;72.25;101592.97;4980019;28;104095;-55
2022/11/26 07:08:52;;;;;;;34.22;32.13;;;;;;;12.52;72.38;101602.84;4984269;28;102822;-55
2022/11/26 07:11:20;;;;;;;32.05;30.10;;;;;;;12.51;72.47;101603.91;4984840;28;102626;-55
2022/11/26 07:13:47;;;;;;;35.58;33.38;;;;;;;12.51;72.44;101614.81;4984128;28;102231;-54
2022/11/26 07:16:14;;;;;;;39.35;36.97;;;;;;;12.51;72.18;101609.34;4977574;28;104103;-54
2022/11/26 07:18:41;;;;;;;34.10;32.13;;;;;;;12.52;72.52;101607.47;4976786;28;101997;-54
2022/11/26 07:21:10;;;;;;;37.00;34.85;;;;;;;12.51;72.52;101612.09;4983107;28;102133;-55
2022/11/26 07:23:39;;;;;;;36.55;34.33;;;;;;;12.51;72.36;101620.28;4987470;28;102004;-54
2022/11/26 07:26:08;;;;;;;34.95;32.85;;;;;;;12.51;72.33;101609.34;4978382;28;103917;-55
2022/11/26 07:28:35;;;;;;;39.78;37.42;;;;;;;12.52;72.12;101608.28;4993297;28;102368;-55
2022/11/26 07:31:05;;;;;;;36.55;34.35;;;;;;;12.50;72.24;101618.66;4990750;28;102442;-54
2022/11/26 07:33:32;;;;;;;35.13;33.03;;;;;;;12.49;72.34;101612.38;4977657;28;102178;-54
2022/11/26 07:35:59;;;;;;;36.15;33.97;;;;;;;12.48;72.24;101616.19;4984429;28;104287;-54
2022/11/26 07:38:26;;;;;;;39.38;36.95;;;;;;;12.49;72.24;101617.00;4986785;28;102646;-55
2022/11/26 07:40:52;;;;;;;41.38;39.00;;;;;;;12.50;71.98;101621.38;4992159;28;102002;-54
2022/11/26 07:43:20;;;;;;;36.15;33.97;;;;;;;12.48;72.21;101621.66;4984575;28;102104;-54
2022/11/26 07:45:47;;;;;;;36.27;34.20;;;;;;;12.49;72.24;101614.28;4985749;28;103897;-54
2022/11/26 07:48:14;;;;;;;35.78;33.67;;;;;;;12.49;72.19;101623.28;4981781;28;102141;-54
2022/11/26 07:50:42;;;;;;;37.35;35.10;;;;;;;12.49;72.12;101617.81;4988230;28;102443;-55
2022/11/26 07:53:09;;;;;;;39.17;36.87;;;;;;;12.50;72.12;101613.19;4996390;28;102170;-55
2022/11/26 07:55:37;;;;;;;37.67;35.53;;;;;;;12.50;71.79;101613.19;4989950;27;104159;-54
2022/11/26 07:58:03;;;;;;;39.88;37.47;;;;;;;12.50;72.04;101613.19;4995977;28;102191;-54
2022/11/26 08:00:31;;;;;;;38.30;35.95;;;;;;;12.50;72.20;101613.19;4994882;28;102552;-54
2022/11/26 08:02:58;;;;;;;37.50;35.25;;;;;;;12.48;72.29;101610.72;4980028;28;102120;-54
2022/11/26 08:05:25;;;;;;;37.85;35.63;;;;;;;12.49;72.10;101617.00;4987034;28;106129;-54
2022/11/26 08:07:51;;;;;;;37.95;35.65;;;;;;;12.49;72.13;101617.00;4991060;28;102305;-54
2022/11/26 08:10:18;;;;;;;37.17;35.03;;;;;;;12.50;72.37;101626.84;4981883;28;102066;-55
2022/11/26 08:12:44;;;;;;;35.75;33.67;;;;;;;12.49;72.25;101622.47;4977860;28;102423;-54
2022/11/26 08:15:12;;;;;;;35.25;33.08;;;;;;;12.49;72.18;101625.19;4989708;28;103976;-54
2022/11/26 08:17:40;;;;;;;36.85;34.72;;;;;;;12.50;72.15;101618.66;4988522;28;102155;-55
2022/11/26 08:20:07;;;;;;;35.88;33.83;;;;;;;12.49;71.76;101617.81;4983094;28;102061;-54
2022/11/26 08:22:34;;;;;;;36.83;34.65;;;;;;;12.50;72.32;101618.66;4982817;28;102598;-54
2022/11/26 08:25:00;;;;;;;37.75;35.55;;;;;;;12.50;72.05;101626.84;4982932;28;104320;-54
2022/11/26 08:27:27;;;;;;;37.00;34.83;;;;;;;12.52;72.12;101621.94;4990703;28;102391;-55
2022/11/26 08:29:53;;;;;;;37.10;34.85;;;;;;;12.52;72.06;101621.94;4976109;28;102447;-54
2022/11/26 08:32:20;;;;;;;37.72;35.60;;;;;;;12.52;72.18;101611.03;4986583;28;102720;-55
2022/11/26 08:34:48;;;;;;;35.17;33.10;;;;;;;12.53;72.06;101612.66;4979129;28;103982;-55
2022/11/26 08:37:15;;;;;;;24.43;22.97;;;;;;;12.52;72.31;101607.47;4982115;28;102586;-55
2022/11/26 08:39:41;;;;;;;37.85;35.58;;;;;;;12.52;72.17;101621.13;4982000;28;102060;-54
2022/11/26 08:42:08;;;;;;;39.72;37.38;;;;;;;12.51;72.20;101614.81;4982484;28;102117;-54
2022/11/26 08:44:35;;;;;;;36.08;33.97;;;;;;;12.51;72.08;101614.81;4990808;28;104084;-55
2022/11/26 08:47:01;;;;;;;34.28;32.28;;;;;;;12.51;72.34;101614.81;4987776;28;102432;-54
2022/11/26 08:49:28;;;;;;;34.45;32.42;;;;;;;12.52;72.16;101615.66;4986734;28;102603;-54
2022/11/26 08:51:56;;;;;;;34.15;32.10;;;;;;;12.52;71.87;101618.41;4986014;28;102198;-55
2022/11/26 08:54:23;;;;;;;34.90;32.85;;;;;;;12.50;72.10;101619.47;4985487;28;103972;-54
2022/11/26 08:56:50;;;;;;;36.25;34.13;;;;;;;12.53;72.13;101622.78;4983886;28;102673;-55
2022/11/26 08:59:18;;;;;;;36.65;34.55;;;;;;;12.53;72.01;101622.78;4979182;28;102852;-54
2022/11/26 13:19:18;;;;;;;15.25;14.20;;;;;;;12.29;72.51;101769.69;5032103;27;103079;-86
2022/11/26 13:22:35;;;;;;;16.35;15.18;;;;;;;12.33;72.51;101779.00;5025975;27;102703;-86
2022/11/26 13:25:21;;;;;;;17.40;16.13;;;;;;;12.32;72.51;101772.72;5028732;27;107849;-86
2022/11/26 13:28:31;;;;;;;14.63;13.57;;;;;;;12.35;72.12;101782.31;5020118;28;102011;-86
2022/11/26 13:31:49;;;;;;;12.57;11.68;;;;;;;12.36;72.15;101790.25;5020656;28;102045;-87
2022/11/26 13:34:41;;;;;;;12.27;11.27;;;;;;;12.37;71.97;101794.63;4995804;27;102489;-86
2022/11/26 13:37:41;;;;;;;12.65;11.65;;;;;;;12.38;71.95;101787.25;5031781;27;104134;-86
2022/11/26 13:40:34;;;;;;;10.90;10.00;;;;;;;12.39;72.01;101780.72;4999272;27;102378;-86
2022/11/26 13:43:24;;;;;;;11.77;10.82;;;;;;;12.38;72.04;101784.53;5041640;27;102069;-86
2022/11/26 13:46:15;;;;;;;12.07;11.07;;;;;;;12.38;72.12;101785.34;5011868;27;102113;-86
2022/11/26 14:57:25;;;;;;;19.15;17.55;;;;;;;12.32;72.53;101829.22;5032876;27;103305;-86
2022/11/26 14:59:57;;;;;;;18.00;16.40;;;;;;;12.31;72.38;101833.03;5033496;27;102184;-86
2022/11/26 15:02:27;;;;;;;17.10;15.80;;;;;;;12.34;72.43;101827.09;5030853;22;104256;-55
2022/11/26 15:04:59;;;;;;;16.13;14.73;;;;;;;12.35;72.43;101834.19;5022121;27;102086;-54
2022/11/26 15:07:27;;;;;;;15.70;14.30;;;;;;;12.35;71.97;101840.47;5041550;27;102913;-55
2022/11/26 15:10:01;;;;;;;16.08;14.65;;;;;;;12.38;72.15;101844.59;5019912;27;102267;-55
2022/11/26 15:12:30;;;;;;;14.52;13.25;;;;;;;12.39;71.98;101829.84;5021813;27;104109;-54
2022/11/26 15:14:58;;;;;;;15.37;13.97;;;;;;;12.40;72.15;101836.97;5030654;27;103365;-55
2022/11/26 15:17:28;;;;;;;15.32;13.93;;;;;;;12.41;72.01;101833.16;5025921;27;102873;-54
2022/11/26 15:19:57;;;;;;;14.10;12.80;;;;;;;12.41;72.17;101835.91;5030354;27;102218;-55
2022/11/26 15:22:32;;;;;;;14.48;13.10;;;;;;;12.41;72.14;101844.91;5028163;27;104154;-54
2022/11/26 15:24:59;;;;;;;15.13;13.73;;;;;;;12.40;71.89;101826.84;5029214;27;102442;-55
2022/11/26 15:27:27;;;;;;;15.43;14.02;;;;;;;12.42;71.99;101834.81;5027881;27;102335;-54
2022/11/26 15:29:55;;;;;;;16.02;14.52;;;;;;;12.42;71.94;101837.53;5025394;27;102513;-54
2022/11/26 15:32:25;;;;;;;14.00;12.70;;;;;;;12.42;72.32;101843.81;5028299;27;104357;-54
2022/11/26 15:34:54;;;;;;;15.63;14.23;;;;;;;12.42;71.89;101840.28;5028602;27;102719;-54
2022/11/26 15:37:21;;;;;;;16.30;14.95;;;;;;;12.41;72.20;101844.09;5026228;27;102552;-55
2022/11/26 15:40:05;;;;;;;15.27;13.93;;;;;;;12.41;72.19;101844.09;5029350;27;102528;-55
2022/11/26 15:42:31;;;;;;;16.05;14.68;;;;;;;12.39;72.14;101844.31;5023861;27;103913;-55
2022/11/26 15:45:00;;;;;;;16.48;15.05;;;;;;;12.40;71.88;101845.16;5025204;27;103206;-54
2022/11/26 15:47:27;;;;;;;16.45;15.10;;;;;;;12.42;71.75;101851.19;5028585;27;103284;-55
2022/11/26 15:49:58;;;;;;;16.33;14.93;;;;;;;12.42;71.79;101851.19;5028102;27;102670;-54
2022/11/26 15:52:29;;;;;;;18.17;16.48;;;;;;;12.42;71.91;101857.47;5022916;27;103920;-55
2022/11/26 15:55:00;;;;;;;16.45;15.00;;;;;;;12.42;72.04;101849.28;5031404;27;102639;-54
2022/11/26 15:57:31;;;;;;;18.05;16.58;;;;;;;12.42;71.99;101845.72;5046148;27;102421;-55
2022/11/26 16:00:03;;;;;;;17.63;16.13;;;;;;;12.42;71.98;101856.66;5044451;27;102382;-55
2022/11/26 16:02:31;;;;;;;19.63;17.98;;;;;;;12.41;72.15;101855.00;5038608;27;104471;-55
2022/11/26 16:04:58;;;;;;;19.42;17.80;;;;;;;12.40;72.07;101865.06;5042435;27;102899;-55
2022/11/26 16:07:27;;;;;;;18.23;16.73;;;;;;;12.44;72.18;101868.13;5035552;27;102285;-55
2022/11/26 16:10:20;;;;;;;19.75;18.20;;;;;;;12.43;72.05;101869.22;5025485;27;102056;-55
2022/11/26 16:13:18;;;;;;;20.08;18.27;;;;;;;12.42;71.94;101875.75;5022379;27;108060;-55
2022/11/26 16:15:50;;;;;;;19.37;17.73;;;;;;;12.44;71.96;101874.44;5018154;28;102514;-55
2022/11/26 16:18:19;;;;;;;20.67;18.92;;;;;;;12.43;72.16;101880.13;5016773;28;102448;-55
2022/11/26 16:20:46;;;;;;;22.48;20.70;;;;;;;12.43;72.07;101880.13;5020091;28;103066;-56
2022/11/26 16:23:21;;;;;;;21.77;19.83;;;;;;;12.41;72.17;101876.84;5029859;27;104037;-55
2022/11/26 16:26:06;;;;;;;22.30;20.33;;;;;;;12.43;71.98;101874.66;5034984;27;101957;-54
2022/11/26 16:28:33;;;;;;;26.58;24.00;;;;;;;12.44;71.91;101876.31;5022532;27;102102;-55
2022/11/26 16:31:01;;;;;;;26.33;23.52;;;;;;;12.42;72.09;101873.03;5019144;27;102406;-55
2022/11/26 16:33:28;;;;;;;28.65;25.80;;;;;;;12.42;71.95;101873.03;5028921;27;104234;-54
2022/11/26 16:35:55;;;;;;;27.55;24.83;;;;;;;12.41;71.86;101879.59;5038235;27;101866;-55
2022/11/26 16:38:24;;;;;;;29.05;26.23;;;;;;;12.41;72.22;101876.84;5038097;27;101954;-54
2022/11/26 16:40:51;;;;;;;28.88;25.92;;;;;;;12.40;71.94;101880.63;5022736;27;102701;-54
2022/11/26 16:43:18;;;;;;;31.33;28.30;;;;;;;12.40;71.74;101881.47;5032390;27;105485;-55
2022/11/26 16:45:45;;;;;;;31.45;28.15;;;;;;;12.41;71.83;101882.31;5025642;27;102456;-55
2022/11/26 16:48:20;;;;;;;30.95;27.75;;;;;;;12.42;71.77;101886.69;5036471;27;102079;-55
2022/11/26 16:50:46;;;;;;;30.33;27.50;;;;;;;12.41;71.74;101888.59;5034001;27;102620;-55
2022/11/26 16:53:13;;;;;;;30.67;27.92;;;;;;;12.40;71.71;101886.91;5016384;27;103931;-55
2022/11/26 16:55:39;;;;;;;33.45;30.23;;;;;;;12.42;71.55;101882.03;5027681;28;102459;-55
2022/11/26 16:58:13;;;;;;;32.58;29.48;;;;;;;12.42;71.57;101884.78;5017199;27;102182;-55
2022/11/26 17:00:40;;;;;;;33.28;30.23;;;;;;;12.45;71.57;101891.63;5018309;28;102136;-54
2022/11/26 17:03:07;;;;;;;36.80;33.60;;;;;;;12.44;71.70;101888.09;5015289;28;104131;-55
2022/11/26 17:05:37;;;;;;;35.67;32.70;;;;;;;12.43;71.55;101896.50;5038061;27;102489;-54
2022/11/26 17:08:07;;;;;;;37.70;34.47;;;;;;;12.42;71.61;101894.88;5036676;27;102081;-54
2022/11/26 17:10:33;;;;;;;34.83;31.63;;;;;;;12.41;71.70;101904.97;5038027;27;102438;-55
2022/11/26 17:13:00;;;;;;;35.63;32.53;;;;;;;12.41;71.91;101904.16;5035547;27;104005;-54
2022/11/26 17:15:27;;;;;;;36.97;33.72;;;;;;;12.43;71.53;101905.53;5037637;27;102042;-54
2022/11/26 17:18:01;;;;;;;37.70;34.53;;;;;;;12.43;71.28;101905.53;5036123;27;102375;-54
2022/11/26 17:20:28;;;;;;;36.40;33.35;;;;;;;12.43;71.46;101901.97;5037249;27;102210;-55
2022/11/26 17:22:56;;;;;;;38.38;35.17;;;;;;;12.42;71.64;101901.16;5036128;27;104145;-55
2022/11/26 17:25:24;;;;;;;38.25;35.10;;;;;;;12.42;71.68;101900.34;5024604;27;102200;-54
